Airfield :
LOGIN :

Register | Disclaimer

   EN    FR    IT 

 










Legend :    VFR   Marginal VFR   IFR   Intensive IFR   Very Intensive IFR
Visi :
Ceiling :
>= 8 km
>= 3000ft
5 to 8 km
1000 to 3000 ft
1500m to 5 km
500 to 1000 ft
800 to 1500m
200 to 500 ft
< 800m
< 200 ft
Symbols :   Thunderstorms  Fog  Heavy snow  Heavy precipitations  Wind > 20 kt
SIGMETs :     Misc.  Thunderstorms  Icing  Turbulence  Mountain Waves  Volcanic Ashes






- Airport Elevation : 939 ft


LKKB - Kbely Air Base

CURRENT METAR :
  • 041200Z VRB03KT CAVOK 23/14 Q1019 NOSIG

EXPIRED METARs :
  • 041100Z 02003KT 340V100 CAVOK 22/14 Q1018 NOSIG
  • 041000Z 33004KT 270V020 CAVOK 22/14 Q1019 NOSIG

TAF AMD TAF LKKB
Valid from the 04 at 00:00 until the 05 at 00:00 UTC


032300Z 0400/0500 20008KT CAVOK
BECMG 0404/0406 VRB02KT
BECMG 0417/0419 03008KT



MET'MAP, your aeronautical weather chart ! - Copyright ORBIFLY December 2007 - Disclaimer

ORBIFLY MET'MAP TEAM :

Programming & Development : Alexandra Zaïnal
Original concept : Baudouin d'Aumeries
Technical & hardware support : Manuel Goepfert
Assistance : Marc-Olivier Méhu




SOURCES & CREDITS :

   NOAA